createdAt,value
2019-02-26T00:01:26.327Z,17.30
2019-02-26T00:03:56.690Z,17.40
2019-02-26T00:06:27.858Z,17.40
2019-02-26T00:08:58.782Z,17.40
2019-02-26T00:11:28.992Z,17.50
2019-02-26T00:13:59.019Z,17.60
2019-02-26T00:16:28.330Z,17.60
2019-02-26T00:19:00.779Z,17.60
2019-02-26T00:21:29.297Z,17.50
2019-02-26T00:23:59.289Z,17.50
2019-02-26T00:26:28.282Z,17.60
2019-02-26T00:28:59.597Z,17.60
2019-02-26T00:31:28.854Z,17.50
2019-02-26T00:33:59.399Z,17.50
2019-02-26T00:36:29.727Z,17.60
2019-02-26T00:39:00.632Z,17.50
2019-02-26T00:41:31.835Z,17.50
2019-02-26T00:44:02.236Z,17.50
2019-02-26T00:46:32.517Z,17.40
2019-02-26T00:49:03.126Z,17.50
2019-02-26T00:51:33.355Z,17.40
2019-02-26T00:54:04.104Z,17.40
2019-02-26T00:56:34.050Z,17.40
2019-02-26T00:59:04.070Z,17.40
2019-02-26T01:01:33.549Z,17.40
2019-02-26T01:04:02.526Z,17.30
2019-02-26T01:06:33.432Z,17.30
2019-02-26T01:09:05.487Z,17.20
2019-02-26T01:11:33.157Z,17.20
2019-02-26T01:14:02.210Z,17.30
2019-02-26T01:16:31.546Z,17.20
2019-02-26T01:19:00.854Z,17.20
2019-02-26T01:21:31.111Z,17.20
2019-02-26T01:24:01.730Z,17.20
2019-02-26T01:26:31.610Z,17.10
2019-02-26T01:29:01.015Z,17.10
2019-02-26T01:31:33.880Z,17.10
2019-02-26T01:34:03.974Z,17.10
2019-02-26T01:36:33.030Z,17.10
2019-02-26T01:39:02.107Z,17.10
2019-02-26T01:41:31.149Z,17.00
2019-02-26T01:44:00.205Z,17.00
2019-02-26T01:46:32.130Z,17.00
2019-02-26T01:49:02.104Z,17.00
2019-02-26T01:51:31.613Z,17.00
2019-02-26T01:54:01.094Z,17.00
2019-02-26T01:56:30.078Z,16.90
2019-02-26T01:59:02.154Z,16.90
2019-02-26T02:01:30.074Z,16.90
2019-02-26T02:03:59.121Z,16.90
2019-02-26T02:06:30.173Z,16.90
2019-02-26T02:08:58.982Z,16.80
2019-02-26T02:11:29.403Z,16.90
2019-02-26T02:14:01.901Z,16.80
2019-02-26T02:16:31.401Z,16.80
2019-02-26T02:19:00.838Z,16.80
2019-02-26T02:21:31.508Z,16.80
2019-02-26T02:24:00.686Z,16.80
2019-02-26T02:26:29.742Z,16.80
2019-02-26T02:28:58.764Z,16.80
2019-02-26T02:31:31.268Z,16.70
2019-02-26T02:33:58.671Z,16.80
2019-02-26T02:36:28.228Z,16.70
2019-02-26T02:38:57.390Z,16.70
2019-02-26T02:41:26.684Z,16.70
2019-02-26T02:43:55.732Z,16.70
2019-02-26T02:46:24.988Z,16.70
2019-02-26T02:48:54.073Z,16.40
2019-02-26T02:51:25.532Z,16.30
2019-02-26T02:53:56.473Z,16.20
2019-02-26T02:56:24.755Z,16.20
2019-02-26T02:58:53.814Z,16.20
2019-02-26T03:01:25.819Z,16.20
2019-02-26T03:03:56.450Z,16.20
2019-02-26T03:06:27.290Z,16.20
2019-02-26T03:08:55.583Z,16.10
2019-02-26T03:11:24.739Z,16.10
2019-02-26T03:13:53.982Z,16.10
2019-02-26T03:16:25.036Z,16.10
2019-02-26T03:18:54.211Z,16.00
2019-02-26T03:21:24.665Z,16.00
2019-02-26T03:23:54.322Z,16.00
2019-02-26T03:26:25.295Z,15.90
2019-02-26T03:28:54.055Z,15.90
2019-02-26T03:31:28.782Z,15.90
2019-02-26T03:33:59.943Z,15.90
2019-02-26T03:36:25.043Z,15.90
2019-02-26T03:38:56.611Z,15.90
2019-02-26T03:41:26.162Z,15.90
2019-02-26T03:43:58.463Z,15.80
2019-02-26T03:46:26.984Z,15.80
2019-02-26T03:48:56.026Z,15.80
2019-02-26T03:51:25.081Z,15.80
2019-02-26T03:53:54.430Z,15.80
2019-02-26T03:56:23.500Z,15.80
2019-02-26T03:58:56.969Z,15.70
2019-02-26T04:01:24.994Z,15.70
2019-02-26T04:03:54.717Z,15.70
2019-02-26T04:06:24.851Z,15.70
2019-02-26T04:08:55.967Z,15.70
2019-02-26T04:11:27.671Z,15.70
2019-02-26T04:13:56.734Z,15.70
2019-02-26T04:16:26.060Z,15.60
2019-02-26T04:18:55.094Z,15.60
2019-02-26T04:21:24.160Z,15.60
2019-02-26T04:23:54.078Z,15.60
2019-02-26T04:27:01.178Z,15.60
2019-02-26T04:29:58.330Z,15.60
2019-02-26T04:33:06.573Z,15.60
2019-02-26T04:35:56.338Z,15.60
2019-02-26T04:38:50.739Z,15.50
2019-02-26T04:41:55.591Z,15.50
2019-02-26T04:45:09.244Z,15.50
2019-02-26T04:47:40.717Z,15.50
2019-02-26T04:50:10.308Z,15.50
2019-02-26T04:52:41.215Z,15.40
2019-02-26T04:55:10.728Z,15.30
2019-02-26T04:57:42.612Z,15.30
2019-02-26T05:00:11.294Z,15.40
2019-02-26T05:02:40.540Z,15.40
2019-02-26T05:05:09.540Z,15.40
2019-02-26T05:07:41.432Z,15.30
2019-02-26T05:10:09.759Z,15.30
2019-02-26T05:12:40.205Z,15.30
2019-02-26T05:15:14.007Z,15.30
2019-02-26T05:17:40.745Z,15.30
2019-02-26T05:20:12.999Z,15.30
2019-02-26T05:22:40.618Z,15.30
2019-02-26T05:25:13.974Z,15.30
2019-02-26T05:27:42.895Z,15.20
2019-02-26T05:30:15.542Z,15.20
2019-02-26T05:32:42.896Z,15.30
2019-02-26T05:35:14.160Z,15.20
2019-02-26T05:37:43.333Z,15.20
2019-02-26T05:40:15.369Z,15.20
2019-02-26T05:42:43.554Z,15.20
2019-02-26T05:45:12.625Z,15.10
2019-02-26T05:47:43.037Z,15.10
2019-02-26T05:50:16.111Z,15.10
2019-02-26T05:52:43.890Z,15.10
2019-02-26T05:55:14.618Z,15.10
2019-02-26T05:57:44.730Z,15.10
2019-02-26T06:00:17.230Z,15.10
2019-02-26T06:02:48.542Z,15.10
2019-02-26T06:05:18.386Z,15.00
2019-02-26T06:07:47.447Z,15.00
2019-02-26T06:10:18.898Z,15.00
2019-02-26T06:12:47.641Z,15.00
2019-02-26T06:15:23.015Z,15.00
2019-02-26T06:17:53.906Z,15.00
2019-02-26T06:20:26.721Z,15.00
2019-02-26T06:22:55.570Z,14.90
2019-02-26T06:25:24.836Z,14.90
2019-02-26T06:27:53.922Z,14.90
2019-02-26T06:30:23.091Z,14.90
2019-02-26T06:32:52.513Z,15.00
2019-02-26T06:35:22.361Z,15.00
2019-02-26T06:37:51.450Z,14.90
2019-02-26T06:40:20.548Z,14.90
2019-02-26T06:42:49.916Z,14.90
2019-02-26T06:45:19.581Z,14.90
2019-02-26T06:47:51.274Z,14.90
2019-02-26T06:50:19.637Z,14.80
2019-02-26T06:52:50.715Z,14.80
2019-02-26T06:55:20.111Z,14.80
2019-02-26T06:57:50.771Z,14.80
2019-02-26T07:00:23.789Z,14.80
2019-02-26T07:02:51.418Z,14.80
2019-02-26T07:05:23.807Z,14.90
2019-02-26T07:07:54.060Z,14.90
2019-02-26T07:10:25.996Z,14.90
2019-02-26T07:12:53.802Z,14.90
2019-02-26T07:15:23.392Z,15.00
2019-02-26T07:17:52.783Z,15.10
2019-02-26T07:20:21.880Z,15.10
2019-02-26T07:22:51.694Z,15.10
2019-02-26T07:25:21.071Z,15.20
2019-02-26T07:27:51.308Z,15.30
2019-02-26T07:30:21.014Z,15.30
2019-02-26T07:32:50.098Z,15.30
2019-02-26T07:35:19.539Z,15.30
2019-02-26T07:37:52.702Z,15.30
2019-02-26T07:40:22.939Z,15.30
2019-02-26T07:42:51.968Z,15.30
2019-02-26T07:45:22.877Z,15.40
2019-02-26T07:47:54.079Z,15.40
2019-02-26T07:50:23.318Z,15.40
2019-02-26T07:52:55.279Z,15.50
2019-02-26T07:55:24.219Z,15.50
2019-02-26T07:57:53.356Z,15.50
2019-02-26T08:00:24.017Z,15.50
2019-02-26T08:02:54.777Z,15.50
2019-02-26T08:05:26.202Z,15.60
2019-02-26T08:07:56.489Z,15.60
2019-02-26T08:10:25.798Z,15.60
2019-02-26T08:12:56.627Z,15.60
2019-02-26T08:15:27.852Z,15.60
2019-02-26T08:17:59.950Z,15.70
2019-02-26T08:20:30.216Z,15.60
2019-02-26T08:23:01.205Z,15.70
2019-02-26T08:25:29.769Z,15.70
2019-02-26T08:28:01.077Z,15.70
2019-02-26T08:30:29.797Z,15.70
2019-02-26T08:33:01.808Z,15.70
2019-02-26T08:35:30.477Z,15.80
2019-02-26T08:38:00.432Z,15.80
2019-02-26T08:40:29.487Z,15.90
2019-02-26T08:42:58.555Z,15.80
2019-02-26T08:45:28.011Z,15.90
2019-02-26T08:47:57.118Z,16.00
2019-02-26T08:50:28.494Z,16.00
2019-02-26T08:52:58.521Z,16.10
2019-02-26T08:55:27.806Z,16.10
2019-02-26T08:57:57.028Z,15.90
2019-02-26T09:00:26.862Z,13.90
2019-02-26T09:02:56.716Z,13.30
2019-02-26T09:05:28.235Z,12.60
2019-02-26T09:07:57.532Z,13.30
2019-02-26T09:10:26.598Z,13.90
2019-02-26T09:12:55.646Z,13.10
2019-02-26T09:15:24.834Z,13.00
2019-02-26T09:17:53.807Z,13.20
2019-02-26T09:20:22.850Z,12.80
2019-02-26T09:22:54.501Z,12.80
2019-02-26T09:25:25.957Z,12.90
2019-02-26T09:27:53.682Z,13.00
2019-02-26T09:30:22.735Z,13.20
2019-02-26T09:32:52.480Z,13.30
2019-02-26T09:35:27.050Z,13.30
2019-02-26T09:37:56.379Z,13.50
2019-02-26T09:40:26.562Z,13.90
2019-02-26T09:42:57.271Z,13.60
2019-02-26T09:45:29.589Z,13.50
2019-02-26T09:47:58.037Z,14.00
2019-02-26T09:50:27.453Z,14.60
2019-02-26T09:52:59.131Z,15.80
2019-02-26T09:55:27.727Z,16.40
2019-02-26T09:57:56.866Z,16.40
2019-02-26T10:00:29.316Z,16.70
2019-02-26T10:02:57.778Z,16.60
2019-02-26T10:05:26.835Z,16.60
2019-02-26T10:07:57.995Z,16.40
2019-02-26T10:10:29.115Z,16.40
2019-02-26T10:13:01.457Z,16.50
2019-02-26T10:15:28.574Z,16.50
2019-02-26T10:17:59.566Z,16.50
2019-02-26T10:20:31.694Z,16.50
2019-02-26T10:23:02.805Z,16.60
2019-02-26T10:25:32.114Z,16.60
2019-02-26T10:28:05.805Z,16.60
2019-02-26T10:30:33.969Z,16.70
2019-02-26T10:33:03.539Z,16.60
2019-02-26T10:35:33.701Z,17.20
2019-02-26T10:38:07.734Z,17.70
2019-02-26T10:40:50.195Z,17.90
2019-02-26T10:43:06.526Z,17.90
2019-02-26T10:45:41.644Z,17.90
2019-02-26T10:48:09.247Z,17.90
2019-02-26T10:50:40.379Z,18.00
2019-02-26T10:53:13.151Z,18.00
2019-02-26T10:55:41.801Z,18.20
2019-02-26T10:58:13.136Z,18.10
2019-02-26T11:00:41.603Z,18.00
2019-02-26T11:03:12.911Z,17.70
2019-02-26T11:05:42.632Z,17.40
2019-02-26T11:08:12.383Z,17.50
2019-02-26T11:10:43.910Z,17.50
2019-02-26T11:13:13.066Z,18.00
2019-02-26T11:15:43.802Z,18.40
2019-02-26T11:18:15.017Z,18.50
2019-02-26T11:20:45.843Z,18.70
2019-02-26T11:23:16.261Z,18.70
2019-02-26T11:25:45.584Z,18.80
2019-02-26T11:28:14.743Z,18.80
2019-02-26T11:30:46.550Z,18.90
2019-02-26T11:33:15.761Z,19.00
2019-02-26T11:35:47.149Z,19.00
2019-02-26T11:38:17.867Z,19.00
2019-02-26T11:40:47.682Z,19.10
2019-02-26T11:43:19.864Z,19.10
2019-02-26T11:45:48.303Z,19.20
2019-02-26T11:48:17.810Z,19.30
2019-02-26T11:50:47.195Z,19.30
2019-02-26T11:53:16.511Z,19.30
2019-02-26T11:55:45.483Z,19.30
2019-02-26T11:58:15.897Z,19.40
2019-02-26T12:03:25.420Z,19.50
2019-02-26T12:05:56.617Z,19.50
2019-02-26T12:08:26.218Z,19.50
2019-02-26T12:11:01.120Z,19.60
2019-02-26T12:13:27.657Z,19.60
2019-02-26T12:15:56.834Z,19.70
2019-02-26T12:18:26.007Z,19.70
2019-02-26T12:20:55.179Z,19.70
2019-02-26T12:23:24.244Z,19.70
2019-02-26T12:25:55.425Z,19.80
2019-02-26T12:28:25.473Z,19.80
2019-02-26T12:30:54.719Z,19.80
2019-02-26T12:33:23.695Z,19.90
2019-02-26T12:35:55.550Z,19.90
2019-02-26T12:38:23.888Z,19.90
2019-02-26T12:40:53.581Z,19.90
2019-02-26T12:43:22.860Z,19.90
2019-02-26T12:45:55.226Z,20.00
2019-02-26T12:48:22.840Z,20.00
2019-02-26T12:50:55.377Z,20.00
2019-02-26T12:53:23.693Z,20.10
2019-02-26T12:55:54.303Z,20.10
2019-02-26T12:58:26.804Z,20.10
2019-02-26T13:00:54.630Z,20.10
2019-02-26T13:03:23.919Z,20.20
2019-02-26T13:05:53.611Z,20.20
2019-02-26T13:08:24.116Z,20.20
2019-02-26T13:10:56.155Z,20.30
2019-02-26T13:13:24.088Z,20.30
2019-02-26T13:15:53.138Z,20.30
2019-02-26T13:18:22.194Z,20.40
2019-02-26T13:20:57.200Z,20.40
2019-02-26T13:23:22.866Z,20.40
2019-02-26T13:25:51.908Z,20.40
2019-02-26T13:28:20.882Z,20.50
2019-02-26T13:30:49.858Z,20.50
2019-02-26T13:33:22.223Z,20.60
2019-02-26T13:35:52.333Z,20.60
2019-02-26T13:38:24.542Z,20.60
2019-02-26T13:40:51.242Z,20.60
2019-02-26T13:43:20.699Z,20.70
2019-02-26T13:45:49.894Z,20.70
2019-02-26T13:48:19.014Z,20.70
2019-02-26T13:50:48.589Z,20.70
2019-02-26T13:53:17.669Z,20.70
2019-02-26T13:55:46.862Z,20.80
2019-02-26T13:58:15.926Z,20.80
2019-02-26T14:00:45.043Z,20.80
2019-02-26T14:03:14.648Z,20.80
2019-02-26T14:05:44.386Z,20.90
2019-02-26T14:08:13.497Z,20.90
2019-02-26T14:10:42.548Z,20.90
2019-02-26T14:13:11.926Z,20.90
2019-02-26T14:15:40.997Z,20.90
2019-02-26T14:18:10.035Z,21.00
2019-02-26T14:20:39.255Z,21.00
2019-02-26T14:23:08.299Z,21.00
2019-02-26T14:25:37.282Z,21.00
2019-02-26T14:28:06.265Z,21.00
2019-02-26T14:30:35.234Z,21.10
2019-02-26T14:33:04.696Z,21.10
2019-02-26T14:35:34.371Z,21.10
2019-02-26T14:38:03.738Z,21.10
2019-02-26T14:40:32.794Z,21.10
2019-02-26T14:43:02.337Z,21.10
2019-02-26T14:45:31.385Z,21.10
2019-02-26T14:48:00.270Z,21.10
2019-02-26T14:50:29.918Z,21.10
2019-02-26T14:52:58.895Z,21.20
2019-02-26T14:55:27.939Z,21.10
2019-02-26T14:57:57.008Z,21.20
2019-02-26T15:00:26.928Z,21.20
2019-02-26T15:02:56.489Z,21.20
2019-02-26T15:05:25.833Z,21.20
2019-02-26T15:07:55.907Z,21.20
2019-02-26T15:10:24.884Z,21.20
2019-02-26T15:12:54.389Z,21.20
2019-02-26T15:15:23.452Z,21.20
2019-02-26T15:17:52.484Z,21.20
2019-02-26T15:20:21.947Z,21.20
2019-02-26T15:22:50.931Z,21.20
2019-02-26T15:25:23.274Z,21.10
2019-02-26T15:27:52.328Z,21.10
2019-02-26T15:30:21.382Z,21.10
2019-02-26T15:32:50.436Z,21.20
2019-02-26T15:35:19.431Z,21.10
2019-02-26T15:37:48.482Z,21.10
2019-02-26T15:40:17.472Z,21.10
2019-02-26T15:42:47.185Z,21.10
2019-02-26T15:45:18.501Z,21.10
2019-02-26T15:47:48.024Z,21.10
2019-02-26T15:50:18.151Z,21.10
2019-02-26T15:52:47.407Z,21.10
2019-02-26T15:55:17.618Z,21.10
2019-02-26T15:57:46.947Z,21.00
2019-02-26T16:00:18.714Z,21.00
2019-02-26T16:02:48.613Z,20.90
2019-02-26T16:05:18.049Z,20.90
2019-02-26T16:07:47.459Z,21.00
2019-02-26T16:10:16.582Z,21.00
2019-02-26T16:12:46.118Z,21.00
2019-02-26T16:15:15.210Z,21.00
2019-02-26T16:17:44.350Z,21.00
2019-02-26T16:20:15.455Z,21.00
2019-02-26T16:22:44.707Z,21.00
2019-02-26T16:25:13.755Z,21.10
2019-02-26T16:27:42.894Z,21.10
2019-02-26T16:30:19.306Z,21.10
2019-02-26T16:32:49.005Z,21.00
2019-02-26T16:35:18.057Z,21.10
2019-02-26T16:37:47.102Z,21.20
2019-02-26T16:40:17.017Z,21.20
2019-02-26T16:42:46.075Z,21.20
2019-02-26T16:45:17.182Z,21.20
2019-02-26T16:47:48.681Z,21.20
2019-02-26T16:50:19.357Z,21.20
2019-02-26T16:52:48.538Z,21.20
2019-02-26T16:55:18.073Z,21.30
2019-02-26T16:57:47.616Z,21.20
2019-02-26T17:00:18.273Z,21.20
2019-02-26T17:02:47.467Z,21.20
2019-02-26T17:05:16.936Z,21.10
2019-02-26T17:07:46.355Z,21.30
2019-02-26T17:10:17.853Z,21.30
2019-02-26T17:12:52.990Z,21.20
2019-02-26T17:15:26.790Z,21.20
2019-02-26T17:17:54.725Z,21.10
2019-02-26T17:20:26.281Z,21.10
2019-02-26T17:22:54.975Z,21.00
2019-02-26T17:25:27.286Z,21.10
2019-02-26T17:27:54.825Z,21.10
2019-02-26T17:30:24.668Z,21.20
2019-02-26T17:32:54.085Z,21.10
2019-02-26T17:35:23.055Z,21.10
2019-02-26T17:37:52.154Z,21.00
2019-02-26T17:40:21.243Z,21.00
2019-02-26T17:42:51.266Z,20.90
2019-02-26T17:45:21.518Z,20.90
2019-02-26T17:47:50.672Z,20.90
2019-02-26T17:50:22.756Z,20.80
2019-02-26T17:52:52.185Z,20.70
2019-02-26T17:55:21.155Z,20.80
2019-02-26T17:57:50.125Z,20.80
2019-02-26T18:00:21.235Z,20.80
2019-02-26T18:02:50.283Z,20.70
2019-02-26T18:05:19.472Z,20.70
2019-02-26T18:07:49.521Z,20.70
2019-02-26T18:10:20.075Z,20.60
2019-02-26T18:12:49.116Z,20.50
2019-02-26T18:15:18.501Z,20.40
2019-02-26T18:17:47.677Z,20.40
2019-02-26T18:20:17.714Z,20.30
2019-02-26T18:22:47.162Z,20.30
2019-02-26T18:25:16.885Z,20.20
2019-02-26T18:27:46.706Z,20.10
2019-02-26T18:30:18.039Z,20.10
2019-02-26T18:32:50.247Z,20.00
2019-02-26T18:35:17.887Z,20.00
2019-02-26T18:37:46.963Z,20.00
2019-02-26T18:40:16.460Z,20.00
2019-02-26T18:42:45.535Z,19.90
2019-02-26T18:45:17.294Z,19.90
2019-02-26T18:47:47.658Z,20.00
2019-02-26T18:50:16.783Z,20.00
2019-02-26T18:52:46.114Z,19.90
2019-02-26T18:55:16.914Z,19.90
2019-02-26T18:57:45.980Z,19.80
2019-02-26T19:00:18.302Z,19.70
2019-02-26T19:02:47.340Z,19.70
2019-02-26T19:05:20.473Z,19.70
2019-02-26T19:07:47.296Z,19.60
2019-02-26T19:10:20.647Z,19.60
2019-02-26T19:12:50.048Z,19.50
2019-02-26T19:15:19.707Z,19.70
2019-02-26T19:17:50.334Z,19.70
2019-02-26T19:20:21.756Z,19.70
2019-02-26T19:22:52.015Z,19.70
2019-02-26T19:25:21.415Z,19.60
2019-02-26T19:27:52.838Z,19.60
2019-02-26T19:30:21.694Z,19.60
2019-02-26T19:32:50.753Z,19.50
2019-02-26T19:35:20.204Z,19.60
2019-02-26T19:37:52.738Z,19.70
2019-02-26T19:40:24.926Z,19.70
2019-02-26T19:42:53.895Z,19.70
2019-02-26T19:45:22.946Z,19.60
2019-02-26T19:47:55.775Z,19.50
2019-02-26T19:50:23.556Z,19.70
2019-02-26T19:52:56.920Z,19.90
2019-02-26T19:55:26.438Z,19.90
2019-02-26T19:57:55.436Z,19.80
2019-02-26T20:00:24.501Z,19.80
2019-02-26T20:02:53.841Z,19.70
2019-02-26T20:05:22.886Z,19.80
2019-02-26T20:07:53.278Z,19.90
2019-02-26T20:10:22.591Z,19.90
2019-02-26T20:12:51.634Z,19.90
2019-02-26T20:15:21.909Z,19.90
2019-02-26T20:17:51.444Z,19.90
2019-02-26T20:20:20.514Z,19.70
2019-02-26T20:22:49.975Z,19.70
2019-02-26T20:25:19.249Z,19.50
2019-02-26T20:27:48.303Z,19.50
2019-02-26T20:30:18.763Z,19.40
2019-02-26T20:32:47.811Z,19.50
2019-02-26T20:35:16.844Z,19.70
2019-02-26T20:37:45.909Z,19.70
2019-02-26T20:40:16.994Z,19.70
2019-02-26T20:42:46.042Z,19.70
2019-02-26T20:45:18.762Z,19.60
2019-02-26T20:47:48.314Z,19.50
2019-02-26T20:50:19.887Z,19.60
2019-02-26T20:52:48.421Z,19.70
2019-02-26T20:55:19.203Z,19.70
2019-02-26T20:57:49.107Z,19.70
2019-02-26T21:00:24.976Z,19.70
2019-02-26T21:02:51.935Z,19.50
2019-02-26T21:05:21.053Z,19.50
2019-02-26T21:07:50.073Z,19.40
2019-02-26T21:10:19.695Z,19.40
2019-02-26T21:12:48.757Z,19.30
2019-02-26T21:15:18.433Z,19.20
2019-02-26T21:17:47.474Z,19.30
2019-02-26T21:20:16.430Z,19.50
2019-02-26T21:22:45.532Z,19.50
2019-02-26T21:25:14.535Z,19.40
2019-02-26T21:27:43.573Z,19.40
2019-02-26T21:30:14.978Z,19.30
2019-02-26T21:32:44.020Z,19.30
2019-02-26T21:35:13.111Z,19.20
2019-02-26T21:37:42.175Z,19.20
2019-02-26T21:40:15.873Z,19.10
2019-02-26T21:42:42.873Z,19.00
2019-02-26T21:45:15.962Z,19.10
2019-02-26T21:47:43.924Z,19.30
2019-02-26T21:50:13.443Z,19.20
2019-02-26T21:52:43.290Z,19.20
2019-02-26T21:55:12.521Z,19.20
2019-02-26T21:57:41.580Z,19.10
2019-02-26T22:00:17.028Z,19.20
2019-02-26T22:02:46.291Z,19.20
2019-02-26T22:05:15.277Z,19.10
2019-02-26T22:07:44.354Z,19.10
2019-02-26T22:10:15.308Z,19.20
2019-02-26T22:12:44.682Z,19.20
2019-02-26T22:15:14.126Z,19.20
2019-02-26T22:17:43.731Z,19.10
2019-02-26T22:20:21.999Z,19.10
2019-02-26T22:22:45.074Z,19.10
2019-02-26T22:25:17.128Z,19.00
2019-02-26T22:27:44.926Z,18.90
2019-02-26T22:30:15.505Z,18.90
2019-02-26T22:32:44.545Z,18.80
2019-02-26T22:35:13.752Z,18.80
2019-02-26T22:37:42.883Z,18.40
2019-02-26T22:40:11.994Z,15.70
2019-02-26T22:42:41.335Z,14.70
2019-02-26T22:45:11.495Z,14.90
2019-02-26T22:47:41.238Z,14.40
2019-02-26T22:50:12.129Z,14.50
2019-02-26T22:52:41.248Z,14.70
2019-02-26T22:55:10.842Z,14.70
2019-02-26T22:57:40.005Z,13.90
2019-02-26T23:00:35.213Z,13.60
2019-02-26T23:03:04.296Z,13.30
2019-02-26T23:05:33.642Z,13.60
2019-02-26T23:08:02.797Z,14.00
2019-02-26T23:10:32.355Z,14.20
2019-02-26T23:13:01.499Z,13.80
2019-02-26T23:15:31.395Z,13.40
2019-02-26T23:18:00.623Z,12.80
2019-02-26T23:20:29.679Z,12.90
2019-02-26T23:22:58.774Z,13.40
2019-02-26T23:25:27.842Z,13.00
2019-02-26T23:27:56.850Z,14.60
2019-02-26T23:30:27.186Z,16.50
2019-02-26T23:32:57.003Z,17.20
2019-02-26T23:35:26.052Z,17.40
2019-02-26T23:37:55.526Z,17.40
2019-02-26T23:40:24.931Z,17.50
2019-02-26T23:42:55.360Z,17.50
2019-02-26T23:45:24.852Z,17.50
2019-02-26T23:47:54.100Z,17.50
2019-02-26T23:50:23.207Z,17.50
2019-02-26T23:52:52.654Z,17.50
2019-02-26T23:55:21.732Z,17.40
2019-02-26T23:57:50.777Z,17.40
